Time;durP1;ratioP1;P1;durP2;ratioP2;P2;SDS_P1;SDS_P2;PMS_P1;PMS_P2;Temp;Humidity;BMP_temperature;BMP_pressure;BME280_temperature;BME280_humidity;BME280_pressure;Samples;Min_cycle;Max_cycle;Signal;HPM_P1;HPM_P2
2021/06/10 00:01:19;;;;;;;5.32;2.38;;;;;;;;;;5023240;28;20029;-49
2021/06/10 00:03:45;;;;;;;2.53;2.00;;;;;;;;;;5032722;28;20057;-50
2021/06/10 00:06:11;;;;;;;3.17;2.38;;;;;;;;;;5027848;28;20044;-52
2021/06/10 00:08:37;;;;;;;2.90;2.03;;;;;;;;;;5016604;28;20075;-52
2021/06/10 00:11:03;;;;;;;2.47;1.88;;;;;;;;;;5021498;28;20037;-55
2021/06/10 00:13:30;;;;;;;2.88;2.10;;;;;;;;;;5017739;28;20045;-50
2021/06/10 00:15:56;;;;;;;6.00;2.30;;;;;;;;;;5032003;28;20025;-52
2021/06/10 00:18:22;;;;;;;3.55;2.33;;;;;;;;;;5021547;28;20041;-49
2021/06/10 00:20:48;;;;;;;2.00;1.80;;;;;;;;;;5019804;28;20101;-51
2021/06/10 00:23:14;;;;;;;4.90;1.95;;;;;;;;;;5029795;28;20112;-50
2021/06/10 00:25:41;;;;;;;2.50;1.70;;;;;;;;;;5029570;28;20018;-50
2021/06/10 00:28:07;;;;;;;2.53;1.60;;;;;;;;;;5016002;28;20037;-50
2021/06/10 00:30:33;;;;;;;3.58;2.00;;;;;;;;;;5030881;28;20080;-49
2021/06/10 00:32:59;;;;;;;2.42;2.00;;;;;;;;;;5021401;28;20133;-50
2021/06/10 00:35:25;;;;;;;3.40;1.90;;;;;;;;;;5023254;28;20034;-51
2021/06/10 00:37:56;;;;;;;4.47;2.17;;;;;;;;;;5013567;28;20034;-49
2021/06/10 00:40:23;;;;;;;3.90;2.22;;;;;;;;;;5013665;28;20849;-49
2021/06/10 00:42:49;;;;;;;4.72;2.53;;;;;;;;;;5031471;28;20040;-53
2021/06/10 00:45:15;;;;;;;2.83;2.38;;;;;;;;;;5033117;28;20457;-55
2021/06/10 00:47:42;;;;;;;4.13;2.28;;;;;;;;;;5022538;28;20026;-50
2021/06/10 00:50:08;;;;;;;3.60;2.50;;;;;;;;;;5017003;28;20030;-53
2021/06/10 00:52:34;;;;;;;4.25;2.05;;;;;;;;;;5020462;28;20040;-50
2021/06/10 00:55:01;;;;;;;4.38;2.30;;;;;;;;;;5033850;28;20029;-50
2021/06/10 00:57:27;;;;;;;2.50;2.30;;;;;;;;;;5022490;28;20056;-51
2021/06/10 00:59:53;;;;;;;3.85;2.28;;;;;;;;;;5025148;28;20034;-49
2021/06/10 01:02:19;;;;;;;5.03;2.50;;;;;;;;;;5020471;28;20096;-48
2021/06/10 01:04:45;;;;;;;4.50;2.45;;;;;;;;;;5033215;28;20030;-49
2021/06/10 01:07:18;;;;;;;3.30;2.47;;;;;;;;;;5014501;28;20045;-51
2021/06/10 01:09:47;;;;;;;2.80;2.03;;;;;;;;;;5024046;28;20033;-49
2021/06/10 01:12:27;;;;;;;5.80;2.22;;;;;;;;;;5012741;28;20352;-52
2021/06/10 01:15:04;;;;;;;3.33;2.30;;;;;;;;;;5021873;28;20096;-50
2021/06/10 01:17:31;;;;;;;3.67;2.30;;;;;;;;;;5022405;28;20405;-49
2021/06/10 01:20:05;;;;;;;4.50;2.35;;;;;;;;;;5024387;28;20030;-52
2021/06/10 01:22:50;;;;;;;2.80;2.10;;;;;;;;;;5012860;28;20091;-49
2021/06/10 01:25:25;;;;;;;5.13;2.20;;;;;;;;;;5030132;28;20030;-52
2021/06/10 01:27:52;;;;;;;3.60;2.35;;;;;;;;;;5026626;28;20029;-50
2021/06/10 01:30:20;;;;;;;6.68;2.47;;;;;;;;;;5022574;28;20033;-49
2021/06/10 01:32:48;;;;;;;2.75;2.03;;;;;;;;;;5017280;28;20045;-50
2021/06/10 01:35:14;;;;;;;2.92;2.08;;;;;;;;;;5029040;28;20045;-51
2021/06/10 01:37:41;;;;;;;2.97;2.20;;;;;;;;;;5020636;28;20115;-54
2021/06/10 01:40:08;;;;;;;2.65;1.90;;;;;;;;;;5005865;28;20049;-55
2021/06/10 01:42:36;;;;;;;2.97;2.40;;;;;;;;;;5013641;28;20075;-53
2021/06/10 01:45:03;;;;;;;2.85;2.28;;;;;;;;;;5021306;28;20030;-51
2021/06/10 01:47:29;;;;;;;3.00;2.30;;;;;;;;;;5024979;28;20117;-54
2021/06/10 01:49:56;;;;;;;2.70;2.20;;;;;;;;;;5027157;28;20112;-54
2021/06/10 01:52:24;;;;;;;3.53;2.40;;;;;;;;;;5018760;28;20030;-50
2021/06/10 01:54:50;;;;;;;4.00;2.33;;;;;;;;;;5030588;28;20113;-51
2021/06/10 01:57:17;;;;;;;3.10;2.42;;;;;;;;;;5018705;28;20128;-50
2021/06/10 01:59:43;;;;;;;2.95;2.20;;;;;;;;;;5025363;28;20030;-50
2021/06/10 02:02:09;;;;;;;3.28;2.38;;;;;;;;;;5021967;28;20025;-50
2021/06/10 02:04:36;;;;;;;3.63;2.40;;;;;;;;;;5020463;28;20117;-49
2021/06/10 02:07:02;;;;;;;3.08;2.10;;;;;;;;;;5022793;28;20080;-49
2021/06/10 02:09:29;;;;;;;2.72;2.30;;;;;;;;;;5027041;28;20037;-50
2021/06/10 02:11:55;;;;;;;3.53;2.13;;;;;;;;;;5023122;28;20117;-50
2021/06/10 02:14:21;;;;;;;3.00;2.60;;;;;;;;;;5032539;28;20053;-55
2021/06/10 02:16:48;;;;;;;3.58;2.20;;;;;;;;;;5019927;28;20087;-55
2021/06/10 02:19:18;;;;;;;3.72;2.45;;;;;;;;;;5017425;28;20038;-50
2021/06/10 02:21:44;;;;;;;3.20;2.20;;;;;;;;;;5018865;28;20036;-52
2021/06/10 02:24:14;;;;;;;3.20;2.35;;;;;;;;;;5022515;28;20053;-53
2021/06/10 02:26:40;;;;;;;2.95;2.60;;;;;;;;;;5022442;28;20458;-50
2021/06/10 02:29:06;;;;;;;6.70;2.42;;;;;;;;;;5014367;28;20034;-49
2021/06/10 02:31:33;;;;;;;3.35;2.90;;;;;;;;;;5016738;28;20121;-51
2021/06/10 02:33:59;;;;;;;4.10;2.40;;;;;;;;;;5020337;28;20045;-50
2021/06/10 02:36:25;;;;;;;3.40;3.10;;;;;;;;;;5021979;28;20485;-49
2021/06/10 02:39:05;;;;;;;4.55;3.03;;;;;;;;;;5014302;28;20029;-52
2021/06/10 02:41:32;;;;;;;3.92;2.83;;;;;;;;;;5018263;28;20065;-49
2021/06/10 02:43:58;;;;;;;7.50;3.17;;;;;;;;;;5032065;28;20470;-49
2021/06/10 02:46:26;;;;;;;4.35;3.03;;;;;;;;;;5014061;28;20817;-49
2021/06/10 02:48:53;;;;;;;5.50;3.20;;;;;;;;;;5012774;28;20045;-50
2021/06/10 02:51:20;;;;;;;5.47;3.10;;;;;;;;;;5014426;28;20034;-49
2021/06/10 02:53:47;;;;;;;4.07;2.83;;;;;;;;;;5022443;28;20465;-51
2021/06/10 02:56:15;;;;;;;4.35;3.17;;;;;;;;;;5026042;28;20030;-50
2021/06/10 02:58:42;;;;;;;3.53;2.83;;;;;;;;;;5019154;28;20489;-54
2021/06/10 03:01:09;;;;;;;4.18;3.42;;;;;;;;;;5014000;28;20033;-55
2021/06/10 03:03:36;;;;;;;4.35;3.08;;;;;;;;;;5024779;28;20116;-52
2021/06/10 03:06:03;;;;;;;6.60;3.80;;;;;;;;;;5020106;28;20021;-53
2021/06/10 03:08:30;;;;;;;4.07;3.42;;;;;;;;;;5021351;28;20148;-52
2021/06/10 03:10:59;;;;;;;4.88;3.50;;;;;;;;;;5027373;28;20037;-50
2021/06/10 03:13:26;;;;;;;6.45;3.92;;;;;;;;;;5022732;28;20041;-50
2021/06/10 03:15:52;;;;;;;4.15;3.58;;;;;;;;;;5011314;28;20112;-54
2021/06/10 03:18:19;;;;;;;6.32;3.67;;;;;;;;;;5011972;28;20080;-50
2021/06/10 03:20:45;;;;;;;6.13;3.17;;;;;;;;;;5012361;28;20760;-49
2021/06/10 03:23:12;;;;;;;7.20;3.80;;;;;;;;;;5013677;28;20406;-50
2021/06/10 03:25:39;;;;;;;4.18;3.30;;;;;;;;;;5018002;28;20014;-50
2021/06/10 03:28:05;;;;;;;4.72;3.90;;;;;;;;;;5019315;28;20030;-49
2021/06/10 03:30:32;;;;;;;4.50;3.47;;;;;;;;;;5013753;28;20703;-51
2021/06/10 03:32:58;;;;;;;6.05;3.95;;;;;;;;;;5016021;28;20371;-51
2021/06/10 03:35:24;;;;;;;4.00;3.50;;;;;;;;;;5014932;28;20128;-52
2021/06/10 03:37:50;;;;;;;6.70;3.67;;;;;;;;;;5014868;28;20026;-55
2021/06/10 03:40:17;;;;;;;4.97;4.25;;;;;;;;;;5014231;28;20475;-53
2021/06/10 03:42:43;;;;;;;4.25;3.47;;;;;;;;;;5016328;28;20048;-51
2021/06/10 03:45:09;;;;;;;4.78;3.60;;;;;;;;;;5015294;28;20014;-52
2021/06/10 03:47:37;;;;;;;6.95;3.97;;;;;;;;;;5015257;28;20018;-51
2021/06/10 03:50:03;;;;;;;6.40;3.85;;;;;;;;;;5014192;28;20030;-52
2021/06/10 03:52:29;;;;;;;6.88;4.45;;;;;;;;;;5015526;28;20418;-51
2021/06/10 03:54:59;;;;;;;7.07;4.60;;;;;;;;;;5015063;28;20018;-50
2021/06/10 03:57:25;;;;;;;5.18;3.67;;;;;;;;;;5015419;28;20033;-50
2021/06/10 03:59:51;;;;;;;7.70;4.15;;;;;;;;;;5014608;28;20034;-50
2021/06/10 04:02:17;;;;;;;5.55;4.47;;;;;;;;;;5014579;28;20037;-49
2021/06/10 04:04:44;;;;;;;8.85;3.78;;;;;;;;;;5021449;28;20030;-50
2021/06/10 04:07:10;;;;;;;5.38;4.13;;;;;;;;;;5014361;28;20061;-51
2021/06/10 04:09:38;;;;;;;5.72;3.70;;;;;;;;;;5015036;28;20117;-50
2021/06/10 04:12:04;;;;;;;5.78;3.60;;;;;;;;;;5016933;28;20034;-51
2021/06/10 04:14:30;;;;;;;5.00;4.20;;;;;;;;;;5019041;28;20505;-54
2021/06/10 04:16:56;;;;;;;6.63;4.75;;;;;;;;;;5014054;28;20034;-54
2021/06/10 04:19:22;;;;;;;5.97;4.00;;;;;;;;;;5014931;28;20034;-54
2021/06/10 04:21:48;;;;;;;4.40;3.70;;;;;;;;;;5023282;28;20378;-51
2021/06/10 04:24:14;;;;;;;4.45;3.42;;;;;;;;;;5022262;28;20067;-51
2021/06/10 04:26:40;;;;;;;4.97;3.63;;;;;;;;;;5014901;28;20025;-49
2021/06/10 04:29:06;;;;;;;5.82;3.97;;;;;;;;;;5014575;28;20068;-49
2021/06/10 04:31:32;;;;;;;6.15;3.92;;;;;;;;;;5015167;28;20378;-53
2021/06/10 04:33:58;;;;;;;4.90;4.00;;;;;;;;;;5012825;28;20125;-52
2021/06/10 04:36:24;;;;;;;5.38;4.03;;;;;;;;;;5015310;28;20442;-53
2021/06/10 04:38:51;;;;;;;6.28;4.63;;;;;;;;;;5017802;28;20029;-49
2021/06/10 04:41:16;;;;;;;6.40;3.80;;;;;;;;;;5013392;28;20108;-52
2021/06/10 04:43:43;;;;;;;6.25;3.85;;;;;;;;;;5018264;28;20358;-50
2021/06/10 04:46:08;;;;;;;5.72;4.07;;;;;;;;;;5013634;28;20030;-50
2021/06/10 04:48:36;;;;;;;5.55;3.63;;;;;;;;;;5014034;28;20048;-51
2021/06/10 04:51:02;;;;;;;5.00;3.88;;;;;;;;;;5013146;28;20041;-55
2021/06/10 04:53:28;;;;;;;6.07;3.97;;;;;;;;;;5014505;28;20071;-55
2021/06/10 04:55:55;;;;;;;6.10;4.00;;;;;;;;;;5017177;28;20427;-55
2021/06/10 04:58:21;;;;;;;4.55;3.67;;;;;;;;;;5015693;28;20099;-53
2021/06/10 05:00:46;;;;;;;4.53;4.00;;;;;;;;;;5018123;28;20458;-54
2021/06/10 05:03:13;;;;;;;6.82;4.07;;;;;;;;;;5016263;28;20373;-54
2021/06/10 05:05:39;;;;;;;6.22;4.47;;;;;;;;;;5015902;28;20160;-50
2021/06/10 05:08:05;;;;;;;5.88;3.95;;;;;;;;;;5028114;28;20457;-52
2021/06/10 05:10:31;;;;;;;9.18;4.18;;;;;;;;;;5020493;28;20045;-51
2021/06/10 05:12:57;;;;;;;7.18;3.92;;;;;;;;;;5019225;28;20548;-50
2021/06/10 05:15:23;;;;;;;4.60;4.10;;;;;;;;;;5016872;28;20596;-50
2021/06/10 05:17:49;;;;;;;6.30;4.75;;;;;;;;;;5020396;28;20710;-53
2021/06/10 05:20:16;;;;;;;6.53;4.95;;;;;;;;;;5018216;28;20503;-50
2021/06/10 05:22:42;;;;;;;6.40;4.97;;;;;;;;;;5014605;28;20033;-53
2021/06/10 05:25:08;;;;;;;6.25;4.50;;;;;;;;;;5017124;28;20029;-50
2021/06/10 05:27:34;;;;;;;6.18;4.28;;;;;;;;;;5025603;28;20029;-55
2021/06/10 05:30:01;;;;;;;6.72;5.03;;;;;;;;;;5025745;28;20034;-52
2021/06/10 05:32:27;;;;;;;6.00;4.28;;;;;;;;;;5010913;28;20065;-56
2021/06/10 05:34:53;;;;;;;5.43;4.07;;;;;;;;;;5017972;28;20025;-50
2021/06/10 05:37:19;;;;;;;6.28;4.80;;;;;;;;;;5023072;28;20033;-50
2021/06/10 05:39:45;;;;;;;6.00;4.97;;;;;;;;;;5021712;28;20062;-51
2021/06/10 05:42:11;;;;;;;5.28;4.00;;;;;;;;;;5010550;28;20026;-51
2021/06/10 05:44:37;;;;;;;5.70;4.38;;;;;;;;;;5021730;28;20021;-50
2021/06/10 05:47:03;;;;;;;6.25;4.78;;;;;;;;;;5024172;28;20045;-50
2021/06/10 05:49:29;;;;;;;6.10;4.30;;;;;;;;;;5017445;28;20104;-49
2021/06/10 05:51:55;;;;;;;6.30;4.90;;;;;;;;;;5032670;28;20033;-52
2021/06/10 05:54:21;;;;;;;5.55;4.30;;;;;;;;;;5026791;28;20040;-50
2021/06/10 05:56:47;;;;;;;9.75;4.80;;;;;;;;;;5015677;28;20766;-50
2021/06/10 05:59:13;;;;;;;5.25;4.07;;;;;;;;;;5030484;28;20029;-51
2021/06/10 06:01:39;;;;;;;5.63;4.00;;;;;;;;;;5032750;28;20477;-52
2021/06/10 06:04:05;;;;;;;7.22;4.22;;;;;;;;;;5027569;28;20033;-53
2021/06/10 06:06:31;;;;;;;6.05;4.35;;;;;;;;;;5028791;28;20030;-55
2021/06/10 06:08:57;;;;;;;8.52;4.43;;;;;;;;;;5028958;28;20021;-55
2021/06/10 06:11:23;;;;;;;10.02;4.95;;;;;;;;;;5021459;28;20030;-50
2021/06/10 06:14:06;;;;;;;7.75;4.40;;;;;;;;;;5023791;28;20034;-51
2021/06/10 06:16:32;;;;;;;6.43;3.70;;;;;;;;;;5012251;28;20030;-55
2021/06/10 06:18:59;;;;;;;6.55;4.22;;;;;;;;;;5012338;28;20121;-54
2021/06/10 06:21:25;;;;;;;10.05;4.40;;;;;;;;;;5012766;28;20535;-50
2021/06/10 06:23:51;;;;;;;5.70;3.78;;;;;;;;;;5011928;28;20029;-50
2021/06/10 06:26:17;;;;;;;4.40;3.42;;;;;;;;;;5011890;28;20055;-52
2021/06/10 06:28:44;;;;;;;10.70;4.28;;;;;;;;;;5018788;28;20030;-50
2021/06/10 06:31:10;;;;;;;4.85;4.20;;;;;;;;;;5018040;28;20058;-50
2021/06/10 06:33:36;;;;;;;6.40;4.10;;;;;;;;;;5011873;28;20030;-50
2021/06/10 06:36:02;;;;;;;5.88;3.70;;;;;;;;;;5012205;28;20419;-52
2021/06/10 06:38:28;;;;;;;7.80;3.60;;;;;;;;;;5011908;28;20113;-50
2021/06/10 06:40:54;;;;;;;4.82;3.65;;;;;;;;;;5012229;28;20686;-52
2021/06/10 06:43:20;;;;;;;8.88;4.07;;;;;;;;;;5012060;28;20030;-55
2021/06/10 06:45:46;;;;;;;4.72;3.65;;;;;;;;;;5012067;28;20026;-55
2021/06/10 06:48:14;;;;;;;9.73;4.80;;;;;;;;;;5011749;28;20116;-53
2021/06/10 06:50:40;;;;;;;7.45;3.90;;;;;;;;;;5011981;28;20419;-56
2021/06/10 06:53:06;;;;;;;6.97;3.92;;;;;;;;;;5012616;28;20363;-50
2021/06/10 06:55:32;;;;;;;8.48;3.75;;;;;;;;;;5011571;28;20041;-55
2021/06/10 06:57:58;;;;;;;8.70;3.92;;;;;;;;;;5014541;28;20466;-53
2021/06/10 07:00:24;;;;;;;8.55;3.92;;;;;;;;;;5015923;28;20121;-50
2021/06/10 07:02:50;;;;;;;6.45;3.53;;;;;;;;;;5015972;28;20363;-50
2021/06/10 07:05:16;;;;;;;8.15;4.05;;;;;;;;;;5015845;28;20033;-50
2021/06/10 07:07:42;;;;;;;6.45;3.67;;;;;;;;;;5023123;28;20029;-52
2021/06/10 07:10:09;;;;;;;6.38;3.95;;;;;;;;;;5020353;28;20032;-50
2021/06/10 07:12:35;;;;;;;5.80;4.00;;;;;;;;;;5015904;28;20109;-50
2021/06/10 07:15:01;;;;;;;4.63;3.45;;;;;;;;;;5016078;28;20386;-56
2021/06/10 07:17:29;;;;;;;4.43;3.33;;;;;;;;;;5004779;28;20030;-50
2021/06/10 07:19:55;;;;;;;4.93;3.60;;;;;;;;;;5012756;28;20863;-54
2021/06/10 07:22:22;;;;;;;7.85;4.20;;;;;;;;;;5015473;28;20038;-55
2021/06/10 07:24:48;;;;;;;5.63;3.63;;;;;;;;;;5015492;28;20026;-51
2021/06/10 07:27:15;;;;;;;5.18;3.28;;;;;;;;;;5015228;28;20101;-56
2021/06/10 07:29:41;;;;;;;4.53;3.05;;;;;;;;;;5015189;28;20036;-53
2021/06/10 07:32:07;;;;;;;4.65;2.65;;;;;;;;;;5003655;28;20046;-51
2021/06/10 07:34:34;;;;;;;2.83;2.38;;;;;;;;;;5013662;28;20144;-52
2021/06/10 07:37:00;;;;;;;5.28;2.53;;;;;;;;;;5028614;28;20025;-50
2021/06/10 07:39:26;;;;;;;4.22;2.95;;;;;;;;;;5023145;28;20095;-50
2021/06/10 07:41:52;;;;;;;5.88;2.45;;;;;;;;;;5035164;28;20034;-53
2021/06/10 07:44:18;;;;;;;4.78;3.15;;;;;;;;;;5035001;28;20049;-52
2021/06/10 07:46:44;;;;;;;8.32;3.78;;;;;;;;;;5031343;28;20536;-50
2021/06/10 07:49:10;;;;;;;4.30;3.00;;;;;;;;;;5021626;28;20022;-50
2021/06/10 07:51:36;;;;;;;8.38;2.80;;;;;;;;;;5035192;28;20037;-50
2021/06/10 07:54:02;;;;;;;5.88;2.53;;;;;;;;;;5034419;28;20025;-50
2021/06/10 07:56:28;;;;;;;8.27;3.33;;;;;;;;;;5032239;28;20029;-55
2021/06/10 07:58:54;;;;;;;6.18;3.45;;;;;;;;;;5033989;28;20033;-55
2021/06/10 08:01:20;;;;;;;4.53;3.60;;;;;;;;;;5021966;28;20465;-56
2021/06/10 08:03:46;;;;;;;7.13;4.75;;;;;;;;;;5034575;28;20027;-52
2021/06/10 08:06:12;;;;;;;8.43;4.63;;;;;;;;;;5034487;28;20057;-52
2021/06/10 08:08:38;;;;;;;6.97;4.03;;;;;;;;;;5014100;28;20030;-52
2021/06/10 08:11:09;;;;;;;5.85;4.57;;;;;;;;;;5026283;28;20390;-51
2021/06/10 08:13:35;;;;;;;7.32;4.65;;;;;;;;;;5014480;28;20034;-50
2021/06/10 08:16:02;;;;;;;6.05;4.28;;;;;;;;;;5014613;28;20512;-49
2021/06/10 08:18:29;;;;;;;8.18;4.28;;;;;;;;;;5014053;28;20100;-50
2021/06/10 08:20:56;;;;;;;5.20;3.85;;;;;;;;;;5014735;28;20034;-50
2021/06/10 08:23:22;;;;;;;7.88;4.90;;;;;;;;;;5014445;28;20022;-53
2021/06/10 08:25:48;;;;;;;5.10;3.90;;;;;;;;;;5014002;28;20041;-50
2021/06/10 08:28:14;;;;;;;5.78;3.47;;;;;;;;;;5014123;28;20592;-50
2021/06/10 08:30:41;;;;;;;5.57;4.25;;;;;;;;;;5014638;28;20021;-50
2021/06/10 08:33:07;;;;;;;4.60;3.60;;;;;;;;;;5013877;28;20066;-50
2021/06/10 08:35:33;;;;;;;7.07;4.15;;;;;;;;;;5013912;28;20113;-56
2021/06/10 08:38:00;;;;;;;7.18;4.88;;;;;;;;;;5013817;28;20033;-54
2021/06/10 08:40:27;;;;;;;6.25;4.05;;;;;;;;;;5014249;28;20026;-55
2021/06/10 08:42:53;;;;;;;6.30;3.58;;;;;;;;;;5014096;28;20474;-51
2021/06/10 08:45:20;;;;;;;6.93;3.42;;;;;;;;;;5014066;28;20024;-50
2021/06/10 08:47:47;;;;;;;6.65;3.83;;;;;;;;;;5013886;28;20014;-52
2021/06/10 08:50:17;;;;;;;4.68;3.47;;;;;;;;;;5014107;28;20113;-50
2021/06/10 08:52:43;;;;;;;7.13;4.35;;;;;;;;;;5013489;28;20030;-51
2021/06/10 08:55:12;;;;;;;6.85;3.75;;;;;;;;;;5013849;28;20049;-51
2021/06/10 08:57:37;;;;;;;4.50;3.28;;;;;;;;;;5014054;28;20447;-51
2021/06/10 09:00:04;;;;;;;6.38;4.88;;;;;;;;;;5014085;28;20033;-52
2021/06/10 09:02:30;;;;;;;4.43;3.67;;;;;;;;;;5014051;28;20149;-50
2021/06/10 09:05:04;;;;;;;5.20;3.88;;;;;;;;;;5023861;28;20433;-56
2021/06/10 09:07:34;;;;;;;7.30;3.63;;;;;;;;;;5013475;28;20032;-51
2021/06/10 09:10:00;;;;;;;5.68;3.55;;;;;;;;;;5023770;28;20488;-50
2021/06/10 09:12:26;;;;;;;7.32;4.15;;;;;;;;;;5013909;28;20026;-53
2021/06/10 09:14:57;;;;;;;6.95;4.15;;;;;;;;;;5013700;28;20476;-52
2021/06/10 09:17:27;;;;;;;5.45;3.22;;;;;;;;;;5012493;28;20034;-50
2021/06/10 09:19:53;;;;;;;5.65;3.75;;;;;;;;;;5013242;28;20058;-53
2021/06/10 09:22:19;;;;;;;4.05;3.58;;;;;;;;;;5013535;28;20394;-52
2021/06/10 09:24:45;;;;;;;6.85;3.90;;;;;;;;;;5013523;28;20057;-55
2021/06/10 09:27:13;;;;;;;6.93;5.00;;;;;;;;;;5013146;28;20025;-53
2021/06/10 09:29:51;;;;;;;9.10;4.60;;;;;;;;;;5013232;28;20041;-50
2021/06/10 09:32:25;;;;;;;6.57;3.92;;;;;;;;;;5012586;28;20068;-55
2021/06/10 09:34:55;;;;;;;5.85;4.45;;;;;;;;;;5015543;28;20213;-52
2021/06/10 09:37:33;;;;;;;7.18;4.22;;;;;;;;;;5019597;28;20026;-51
2021/06/10 09:40:01;;;;;;;5.70;4.10;;;;;;;;;;5012408;28;20489;-50
2021/06/10 09:42:37;;;;;;;5.55;3.67;;;;;;;;;;5017086;28;20037;-50
2021/06/10 09:45:04;;;;;;;6.53;4.10;;;;;;;;;;5020426;28;20104;-50
2021/06/10 09:47:31;;;;;;;7.25;4.72;;;;;;;;;;5017549;28;20029;-50
2021/06/10 09:50:10;;;;;;;5.72;4.82;;;;;;;;;;5016050;28;20038;-50
2021/06/10 09:52:46;;;;;;;6.18;4.50;;;;;;;;;;5004261;28;20478;-51
2021/06/10 09:55:25;;;;;;;6.22;4.13;;;;;;;;;;5024634;28;20497;-52
2021/06/10 09:57:52;;;;;;;8.15;5.22;;;;;;;;;;5024555;28;20034;-50
2021/06/10 10:00:25;;;;;;;9.90;5.07;;;;;;;;;;5032666;28;20492;-54
2021/06/10 10:02:51;;;;;;;5.95;4.80;;;;;;;;;;5029982;28;20021;-50
2021/06/10 10:05:20;;;;;;;8.05;5.05;;;;;;;;;;5026872;28;20417;-51
2021/06/10 10:07:46;;;;;;;4.93;4.28;;;;;;;;;;5023706;28;20030;-50
2021/06/10 10:10:13;;;;;;;7.20;4.38;;;;;;;;;;5029638;28;20056;-51
2021/06/10 10:12:43;;;;;;;6.30;4.82;;;;;;;;;;5012834;28;20076;-50
2021/06/10 10:15:09;;;;;;;4.72;3.22;;;;;;;;;;5012139;28;20033;-50
2021/06/10 10:17:36;;;;;;;5.45;3.55;;;;;;;;;;5012442;28;20167;-50
2021/06/10 10:20:03;;;;;;;5.50;3.60;;;;;;;;;;5012376;28;20026;-50
2021/06/10 10:22:30;;;;;;;6.35;3.50;;;;;;;;;;5012761;28;20029;-50
2021/06/10 10:24:58;;;;;;;10.98;5.18;;;;;;;;;;5011881;28;20021;-50
2021/06/10 10:27:24;;;;;;;10.70;5.28;;;;;;;;;;5012222;28;20363;-50
2021/06/10 10:29:50;;;;;;;6.93;3.50;;;;;;;;;;5012438;28;20040;-50
2021/06/10 10:32:25;;;;;;;4.68;3.83;;;;;;;;;;5014424;28;20046;-50
2021/06/10 10:34:51;;;;;;;7.13;3.65;;;;;;;;;;5012192;28;20060;-50
2021/06/10 10:37:22;;;;;;;4.72;3.13;;;;;;;;;;5011694;28;20029;-51
2021/06/10 10:39:48;;;;;;;5.60;3.83;;;;;;;;;;5012266;28;20467;-50
2021/06/10 10:42:33;;;;;;;3.75;2.92;;;;;;;;;;5012321;28;20374;-50
2021/06/10 10:45:19;;;;;;;5.28;3.45;;;;;;;;;;5011323;28;20032;-50
2021/06/10 10:47:47;;;;;;;5.10;3.30;;;;;;;;;;5018047;28;20101;-50
2021/06/10 10:50:18;;;;;;;3.67;2.78;;;;;;;;;;5014588;28;20533;-50
2021/06/10 10:52:53;;;;;;;5.22;3.67;;;;;;;;;;5013051;28;20032;-50
2021/06/10 10:55:27;;;;;;;4.25;3.00;;;;;;;;;;5011853;28;20362;-51
2021/06/10 10:58:02;;;;;;;5.60;3.15;;;;;;;;;;5009119;28;20057;-50
2021/06/10 11:00:44;;;;;;;4.78;3.47;;;;;;;;;;5011889;28;20070;-50
2021/06/10 11:03:24;;;;;;;5.35;3.25;;;;;;;;;;5012279;28;20041;-51
2021/06/10 11:05:51;;;;;;;4.05;2.40;;;;;;;;;;5011595;28;20453;-52
2021/06/10 11:08:17;;;;;;;6.80;3.13;;;;;;;;;;5014146;28;20362;-49
2021/06/10 11:10:50;;;;;;;5.50;2.90;;;;;;;;;;5014012;28;20509;-50
2021/06/10 11:13:22;;;;;;;5.45;2.78;;;;;;;;;;5012313;28;20037;-50
2021/06/10 11:15:49;;;;;;;5.18;2.42;;;;;;;;;;5010890;28;20034;-50
2021/06/10 11:18:35;;;;;;;4.20;2.70;;;;;;;;;;5011955;28;20069;-50
2021/06/10 11:21:01;;;;;;;5.72;2.80;;;;;;;;;;5002602;28;20105;-53
2021/06/10 11:23:27;;;;;;;4.72;2.67;;;;;;;;;;5011959;28;20033;-50
2021/06/10 11:25:56;;;;;;;3.70;2.45;;;;;;;;;;5011594;28;20030;-55
2021/06/10 11:28:23;;;;;;;3.90;2.60;;;;;;;;;;5011864;28;20026;-55
2021/06/10 11:30:51;;;;;;;3.42;2.10;;;;;;;;;;5011892;28;20030;-50
2021/06/10 11:33:17;;;;;;;3.95;2.47;;;;;;;;;;5009630;28;20041;-54
2021/06/10 11:35:51;;;;;;;4.53;3.20;;;;;;;;;;5006279;28;20032;-50
2021/06/10 11:38:18;;;;;;;;;;;;;;;;;;5011974;28;20033;-55
2021/06/10 11:40:46;;;;;;;6.05;2.83;;;;;;;;;;5010618;28;19918;-51
2021/06/10 11:43:13;;;;;;;4.90;2.65;;;;;;;;;;5011572;28;20038;-51
2021/06/10 11:45:41;;;;;;;3.65;2.53;;;;;;;;;;5014332;28;20025;-53
2021/06/10 11:48:08;;;;;;;4.38;2.55;;;;;;;;;;5014743;28;20026;-51
2021/06/10 11:50:35;;;;;;;4.03;2.75;;;;;;;;;;5014961;28;20025;-50
2021/06/10 11:53:05;;;;;;;4.32;1.88;;;;;;;;;;5013341;28;20042;-49
2021/06/10 11:55:32;;;;;;;4.63;2.53;;;;;;;;;;5014722;28;20484;-51
2021/06/10 11:58:00;;;;;;;3.90;2.00;;;;;;;;;;5015321;28;20044;-51
2021/06/10 12:00:27;;;;;;;3.42;2.58;;;;;;;;;;4999520;28;20042;-50
2021/06/10 12:02:57;;;;;;;4.57;2.85;;;;;;;;;;5011647;28;20072;-53
2021/06/10 12:05:23;;;;;;;6.00;2.85;;;;;;;;;;5011608;28;20030;-52
2021/06/10 12:07:50;;;;;;;2.90;2.45;;;;;;;;;;5015190;28;20553;-51
2021/06/10 12:10:20;;;;;;;10.80;2.63;;;;;;;;;;5024469;28;20480;-54
2021/06/10 12:12:48;;;;;;;4.53;2.15;;;;;;;;;;5013782;28;20079;-53
2021/06/10 12:15:27;;;;;;;3.00;2.00;;;;;;;;;;5019031;28;20061;-53
2021/06/10 12:17:55;;;;;;;2.58;1.80;;;;;;;;;;5013682;28;20106;-50
2021/06/10 12:20:23;;;;;;;2.50;2.00;;;;;;;;;;5020745;28;20244;-51
2021/06/10 12:22:49;;;;;;;3.38;2.45;;;;;;;;;;5024744;28;20030;-53
2021/06/10 12:25:26;;;;;;;3.15;2.03;;;;;;;;;;5026310;28;20108;-53
2021/06/10 12:27:56;;;;;;;2.92;2.22;;;;;;;;;;5026279;28;20026;-53
2021/06/10 12:30:25;;;;;;;6.63;2.20;;;;;;;;;;5028138;28;20040;-52
2021/06/10 12:32:51;;;;;;;4.13;1.98;;;;;;;;;;5018737;28;20104;-53
2021/06/10 12:35:21;;;;;;;3.47;2.40;;;;;;;;;;5019077;28;20033;-56
2021/06/10 12:37:53;;;;;;;2.70;1.83;;;;;;;;;;5025881;28;20116;-54
2021/06/10 12:40:19;;;;;;;4.18;2.20;;;;;;;;;;5018910;28;20072;-51
2021/06/10 12:43:04;;;;;;;3.03;1.65;;;;;;;;;;5027282;28;20026;-53
2021/06/10 12:45:30;;;;;;;3.38;2.20;;;;;;;;;;5027304;28;20025;-54
2021/06/10 12:47:56;;;;;;;3.88;2.30;;;;;;;;;;5026238;28;20100;-51
2021/06/10 12:50:22;;;;;;;2.97;2.15;;;;;;;;;;5012647;28;20036;-53
2021/06/10 12:52:48;;;;;;;3.90;1.80;;;;;;;;;;5014106;28;20022;-51
2021/06/10 12:55:16;;;;;;;2.78;1.77;;;;;;;;;;5016732;28;20433;-50
2021/06/10 12:57:42;;;;;;;3.53;1.80;;;;;;;;;;5022329;28;20033;-50
2021/06/10 13:00:12;;;;;;;5.57;2.22;;;;;;;;;;5016252;28;20036;-50
2021/06/10 13:02:39;;;;;;;5.53;1.73;;;;;;;;;;5025086;28;20029;-50
2021/06/10 13:05:08;;;;;;;5.45;1.80;;;;;;;;;;5025556;28;20034;-51
2021/06/10 13:07:39;;;;;;;2.70;1.65;;;;;;;;;;5014229;28;20382;-50
2021/06/10 13:10:07;;;;;;;2.03;1.17;;;;;;;;;;5029065;28;20474;-50
2021/06/10 13:12:34;;;;;;;2.25;1.38;;;;;;;;;;5013878;28;20045;-50
2021/06/10 13:15:00;;;;;;;2.17;1.58;;;;;;;;;;5012990;28;20091;-50
2021/06/10 13:17:44;;;;;;;2.42;1.60;;;;;;;;;;5013331;28;20048;-53
2021/06/10 13:20:10;;;;;;;5.53;1.70;;;;;;;;;;5013597;28;20030;-53
2021/06/10 13:22:36;;;;;;;2.88;1.30;;;;;;;;;;5012834;28;20061;-50
2021/06/10 13:25:07;;;;;;;1.63;1.10;;;;;;;;;;5011687;28;20137;-53
2021/06/10 13:27:33;;;;;;;3.47;1.33;;;;;;;;;;5013172;28;20029;-50
2021/06/10 13:30:00;;;;;;;1.98;1.38;;;;;;;;;;5012481;28;20412;-47
2021/06/10 13:32:34;;;;;;;1.88;1.30;;;;;;;;;;5011646;28;20456;-49
2021/06/10 13:37:32;;;;;;;1.85;1.10;;;;;;;;;;5011366;28;20052;-48
2021/06/10 13:39:58;;;;;;;2.38;0.82;;;;;;;;;;5010965;28;20042;-48
2021/06/10 13:42:27;;;;;;;2.20;1.10;;;;;;;;;;5016741;28;20116;-48
2021/06/10 13:44:54;;;;;;;1.50;0.88;;;;;;;;;;5025891;28;20022;-50
2021/06/10 13:47:21;;;;;;;1.98;0.95;;;;;;;;;;5021733;28;20067;-48
2021/06/10 13:49:47;;;;;;;2.92;1.00;;;;;;;;;;5009922;28;20026;-51
2021/06/10 13:52:13;;;;;;;1.08;0.80;;;;;;;;;;5013150;28;20092;-51
2021/06/10 13:54:39;;;;;;;1.67;0.80;;;;;;;;;;5021003;28;20029;-48
2021/06/10 13:57:06;;;;;;;1.60;0.93;;;;;;;;;;5015379;28;20063;-53
2021/06/10 13:59:32;;;;;;;1.73;1.08;;;;;;;;;;5015942;28;20490;-52
2021/06/10 14:01:58;;;;;;;1.95;0.95;;;;;;;;;;5023902;28;20076;-49
2021/06/10 14:04:24;;;;;;;2.35;1.00;;;;;;;;;;5019740;28;20758;-53
2021/06/10 14:06:50;;;;;;;1.42;0.95;;;;;;;;;;5015481;28;20105;-49
2021/06/10 14:09:16;;;;;;;3.10;0.90;;;;;;;;;;5024536;28;20373;-50
2021/06/10 14:11:43;;;;;;;2.45;1.00;;;;;;;;;;5023273;28;20108;-50
2021/06/10 14:14:09;;;;;;;2.42;0.85;;;;;;;;;;5023907;28;20505;-49
2021/06/10 14:16:37;;;;;;;2.53;0.90;;;;;;;;;;5019924;28;20041;-51
2021/06/10 14:19:05;;;;;;;2.05;0.95;;;;;;;;;;5031571;28;20393;-49
2021/06/10 14:21:32;;;;;;;1.67;0.73;;;;;;;;;;5012434;28;20409;-48
2021/06/10 14:23:58;;;;;;;3.15;0.85;;;;;;;;;;5013831;28;20026;-48
2021/06/10 14:26:25;;;;;;;1.55;0.80;;;;;;;;;;5013248;28;20029;-49
2021/06/10 14:28:53;;;;;;;1.00;0.70;;;;;;;;;;5019349;28;20740;-47
2021/06/10 14:34:05;;;;;;;2.63;1.60;;;;;;;;;;5019668;28;20855;-48
2021/06/10 14:36:31;;;;;;;1.60;0.90;;;;;;;;;;5017211;28;20446;-48
2021/06/10 14:38:58;;;;;;;1.55;0.90;;;;;;;;;;5014825;28;20108;-48
2021/06/10 14:41:24;;;;;;;2.72;1.42;;;;;;;;;;5019756;28;20124;-50
2021/06/10 14:43:50;;;;;;;3.22;1.23;;;;;;;;;;5011196;28;20101;-48
2021/06/10 14:46:16;;;;;;;5.38;1.63;;;;;;;;;;5020161;28;20472;-48
2021/06/10 14:48:42;;;;;;;1.90;1.20;;;;;;;;;;5028574;28;20030;-48
2021/06/10 14:51:08;;;;;;;1.83;1.20;;;;;;;;;;5013830;28;20030;-47